Terminal Aerodrome Forecast
Issued by NWS

Current Version | Previous Version | Text Only | Print | Product List | Glossary On
Versions: 1 2 3 4 5 6 7 8 9 10 11 12 13 14 15 16 17 18
928
FTUS41 KLWX 231600 AAD
TAFMTN
TAF AMD
KMTN 231600Z 2316/2412 29014G22KT P6SM VCSH BKN025 OVC050
     FM231800 25014G25KT P6SM SCT050
     FM240300 27009KT P6SM SCT035=

USA.gov is the U.S. government's official web portal to all federal, state and local government web resources and services.